Hotan, China
Current Conditions -  °F | °C
As of 1:00 AM on Sunday 26 Oct 2014 (Local Time) from ZWSH Reporting Station
NA  
Wind Chill: 57°   Ceiling: NA
Heat Index: 57°   Visibility: NA
Dew Point: 28°   Wind: 9mph
Humidity: 33%   Direction: 300°WNW
Pressure: 30.09"   Gusts: NA
Location:  37.13°N, 79.93°E
Report Text: ZWSH 251700Z AUTO 30004MPS //// 14/M02 Q1019
Loading
Personal Weather Stations






























Interactive Weather Map
Tropical Storm Tracking
New forecast layout! Learn more

10-Day Weather Forecast

Advertisements
Track Severe Weather on mobile